Time;durP1;ratioP1;P1;durP2;ratioP2;P2;SDS_P1;SDS_P2;PMS_P1;PMS_P2;Temp;Humidity;BMP_temperature;BMP_pressure;BME280_temperature;BME280_humidity;BME280_pressure;Samples;Min_cycle;Max_cycle;Signal;HPM_P1;HPM_P2
2023/05/08 00:01:01;;;;;;;1.25;1.25;;;;;;;16.22;100.00;100278.44;5033206;28;20215;-74
2023/05/08 00:03:28;;;;;;;1.27;1.27;;;;;;;16.27;100.00;100281.88;5051015;28;20253;-73
2023/05/08 00:05:56;;;;;;;1.30;1.30;;;;;;;15.87;100.00;100234.09;5051495;28;20207;-74
2023/05/08 00:08:23;;;;;;;1.88;1.58;;;;;;;16.09;100.00;100287.19;5051188;28;20207;-73
2023/05/08 00:10:50;;;;;;;1.30;1.30;;;;;;;15.80;100.00;100248.06;5051567;28;20280;-74
2023/05/08 00:13:16;;;;;;;1.20;1.20;;;;;;;15.80;100.00;100282.06;5051528;28;20207;-74
2023/05/08 00:15:43;;;;;;;1.20;1.20;;;;;;;15.82;100.00;100253.31;5051362;28;20195;-74
2023/05/08 00:18:10;;;;;;;1.00;1.00;;;;;;;15.82;100.00;100271.59;5050912;28;20214;-74
2023/05/08 00:20:37;;;;;;;1.00;1.00;;;;;;;15.64;100.00;100228.09;5036171;28;20207;-74
2023/05/08 00:23:06;;;;;;;1.20;1.20;;;;;;;15.75;100.00;100248.97;5051694;28;20265;-74
2023/05/08 00:25:32;;;;;;;1.00;1.00;;;;;;;15.55;100.00;100256.00;5051013;28;20203;-74
2023/05/08 00:28:00;;;;;;;1.10;1.10;;;;;;;15.62;100.00;100256.00;5051169;28;20231;-73
2023/05/08 00:30:27;;;;;;;1.00;1.00;;;;;;;15.34;100.00;100236.84;5051041;28;20219;-73
2023/05/08 00:32:54;;;;;;;1.15;1.15;;;;;;;15.22;100.00;100242.09;5051194;28;20597;-73
2023/05/08 00:35:21;;;;;;;1.17;1.17;;;;;;;15.54;100.00;100269.94;5032186;28;20200;-73
2023/05/08 00:37:47;;;;;;;1.35;1.35;;;;;;;15.51;100.00;100269.97;5050711;28;20264;-73
2023/05/08 00:40:15;;;;;;;1.00;1.00;;;;;;;15.66;100.00;100267.31;5050738;28;20214;-74
2023/05/08 00:42:42;;;;;;;1.20;1.20;;;;;;;15.54;100.00;100256.88;5050747;28;20227;-74
2023/05/08 00:45:10;;;;;;;1.20;1.20;;;;;;;15.62;100.00;100252.50;5050389;28;20210;-73
2023/05/08 00:47:37;;;;;;;1.20;1.20;;;;;;;15.74;100.00;100252.44;5015820;28;20196;-73
2023/05/08 00:50:04;;;;;;;1.05;1.05;;;;;;;15.85;100.00;100256.78;5050502;28;20261;-74
2023/05/08 00:52:33;;;;;;;1.10;1.10;;;;;;;15.92;100.00;100262.84;5050383;28;20211;-74
2023/05/08 00:55:01;;;;;;;1.20;1.20;;;;;;;16.06;95.04;100268.91;5050163;28;20200;-74
2023/05/08 00:57:34;;;;;;;1.25;1.25;;;;;;;16.02;94.09;100214.84;5050364;28;20660;-74
2023/05/08 01:00:02;;;;;;;1.20;1.20;;;;;;;16.14;92.81;100243.56;5050380;28;20208;-74
2023/05/08 01:02:31;;;;;;;1.25;1.25;;;;;;;16.13;90.99;100226.13;5050524;28;20273;-74
2023/05/08 01:04:57;;;;;;;1.20;1.20;;;;;;;16.36;88.22;100245.22;5049994;28;20203;-74
2023/05/08 01:07:24;;;;;;;1.20;1.20;;;;;;;16.22;87.87;100215.63;5050200;28;20235;-73
2023/05/08 01:09:51;;;;;;;1.10;1.10;;;;;;;16.44;87.06;100241.69;5050792;28;20686;-74
2023/05/08 01:12:22;;;;;;;1.15;1.15;;;;;;;16.61;85.17;100243.34;5050271;28;20624;-74
2023/05/08 01:15:05;;;;;;;1.00;1.00;;;;;;;16.65;84.51;100246.81;5050667;28;20646;-74
2023/05/08 01:17:46;;;;;;;1.15;1.15;;;;;;;16.76;82.65;100255.44;5050241;28;20203;-74
2023/05/08 01:20:26;;;;;;;1.15;1.15;;;;;;;16.84;81.53;100254.50;5016536;28;20206;-74
2023/05/08 01:23:26;;;;;;;1.20;1.20;;;;;;;16.85;90.73;100255.38;5050184;28;20227;-74
2023/05/08 01:26:29;;;;;;;1.05;1.05;;;;;;;16.74;97.97;100247.59;5048117;28;20199;-74
2023/05/08 01:29:24;;;;;;;1.10;1.10;;;;;;;16.74;100.00;100255.44;4993598;28;20720;-74
2023/05/08 01:32:14;;;;;;;1.02;1.02;;;;;;;16.68;100.00;100252.00;4989491;28;20247;-73
2023/05/08 01:34:49;;;;;;;1.10;1.10;;;;;;;16.63;100.00;100256.41;4998092;28;20245;-74
2023/05/08 01:37:21;;;;;;;1.10;1.10;;;;;;;16.53;100.00;100263.41;4989517;28;20283;-73
2023/05/08 01:39:55;;;;;;;1.15;1.15;;;;;;;16.36;100.00;100244.34;4956405;28;20209;-74
2023/05/08 01:42:29;;;;;;;1.15;1.15;;;;;;;16.17;100.00;100254.03;5004194;28;20296;-74
2023/05/08 01:45:00;;;;;;;1.10;1.10;;;;;;;16.09;100.00;100254.91;4972981;28;20200;-74
2023/05/08 01:47:31;;;;;;;1.58;1.58;;;;;;;16.10;100.00;100248.81;5007991;28;20335;-74
2023/05/08 01:50:04;;;;;;;1.15;1.15;;;;;;;16.09;100.00;100255.78;4988792;28;20209;-74
2023/05/08 01:52:35;;;;;;;1.20;1.20;;;;;;;15.99;100.00;100250.63;4998162;28;20320;-74
2023/05/08 01:55:05;;;;;;;1.17;1.17;;;;;;;15.70;100.00;100238.53;4975347;28;20208;-74
2023/05/08 01:57:35;;;;;;;1.10;1.10;;;;;;;15.65;100.00;100235.06;4997380;28;20295;-73
2023/05/08 02:00:03;;;;;;;1.00;1.00;;;;;;;15.64;100.00;100232.44;4988597;28;20205;-74
2023/05/08 02:02:34;;;;;;;1.23;1.23;;;;;;;15.70;100.00;100229.81;5003574;28;20235;-73
2023/05/08 02:05:03;;;;;;;1.05;1.05;;;;;;;15.69;100.00;100228.09;5054341;28;20305;-74
2023/05/08 02:07:32;;;;;;;1.20;1.20;;;;;;;15.28;100.00;100186.34;5018616;28;20210;-74
2023/05/08 02:10:02;;;;;;;1.10;1.10;;;;;;;15.62;100.00;100216.78;5053609;28;20195;-74
2023/05/08 02:12:31;;;;;;;1.20;1.20;;;;;;;15.43;100.00;100216.78;5053644;28;20229;-74
2023/05/08 02:15:00;;;;;;;1.25;1.25;;;;;;;15.63;94.73;100228.09;5053160;28;20200;-74
2023/05/08 02:17:28;;;;;;;1.00;1.00;;;;;;;15.71;89.37;100200.19;5034426;28;20203;-74
2023/05/08 02:19:59;;;;;;;1.20;1.20;;;;;;;16.05;96.19;100234.91;5053750;28;20273;-73
2023/05/08 02:22:26;;;;;;;1.02;1.02;;;;;;;15.91;100.00;100234.13;5053410;28;20196;-73
2023/05/08 02:24:55;;;;;;;1.10;1.10;;;;;;;15.71;100.00;100232.44;5053918;28;20211;-74
2023/05/08 02:27:24;;;;;;;1.20;1.20;;;;;;;15.74;100.00;100236.78;5053364;28;20282;-73
2023/05/08 02:29:51;;;;;;;1.27;1.27;;;;;;;15.58;100.00;100224.63;5053585;28;20195;-73
2023/05/08 02:32:19;;;;;;;1.30;1.30;;;;;;;15.57;100.00;100223.75;5034907;28;20212;-73
2023/05/08 02:34:48;;;;;;;1.10;1.10;;;;;;;15.18;100.00;100182.91;5053228;28;20207;-73
2023/05/08 02:37:19;;;;;;;1.40;1.40;;;;;;;15.34;100.00;100223.78;5053211;28;20207;-74
2023/05/08 02:39:48;;;;;;;1.10;1.10;;;;;;;15.36;100.00;100224.66;5053131;28;20207;-74
2023/05/08 02:42:15;;;;;;;2.53;2.42;;;;;;;15.20;100.00;100202.03;5052983;28;20206;-73
2023/05/08 02:44:42;;;;;;;1.20;1.20;;;;;;;15.44;100.00;100229.00;5052927;28;20295;-73
2023/05/08 02:47:18;;;;;;;1.20;1.20;;;;;;;15.68;100.00;100242.91;5053480;28;20223;-73
2023/05/08 02:49:52;;;;;;;1.20;1.20;;;;;;;15.68;100.00;100244.63;5053190;28;20210;-73
2023/05/08 02:52:28;;;;;;;1.50;1.50;;;;;;;15.83;100.00;100257.66;5052900;28;20262;-73
2023/05/08 02:55:00;;;;;;;1.17;1.17;;;;;;;15.84;100.00;100262.88;5053803;28;20686;-73
2023/05/08 02:57:33;;;;;;;1.15;1.15;;;;;;;15.87;100.00;100265.47;5053256;28;20235;-74
2023/05/08 03:00:05;;;;;;;1.30;1.30;;;;;;;15.94;100.00;100260.25;5053346;28;20199;-74
2023/05/08 03:02:38;;;;;;;1.30;1.30;;;;;;;15.95;100.00;100248.88;5052956;28;20211;-73
2023/05/08 03:05:13;;;;;;;1.30;1.30;;;;;;;16.11;100.00;100264.53;5052690;28;20204;-73
2023/05/08 03:07:43;;;;;;;1.10;1.10;;;;;;;16.02;100.00;100243.63;5052608;28;20205;-74
2023/05/08 03:10:14;;;;;;;1.45;1.45;;;;;;;16.18;100.00;100266.25;5053072;28;20243;-73
2023/05/08 03:12:45;;;;;;;1.00;1.00;;;;;;;16.17;100.00;100264.50;5052582;28;20697;-74
2023/05/08 03:15:18;;;;;;;1.20;1.20;;;;;;;16.21;100.00;100275.81;5045886;28;20226;-74
2023/05/08 03:17:46;;;;;;;1.10;1.10;;;;;;;16.13;100.00;100265.38;5052983;28;20210;-74
2023/05/08 03:20:16;;;;;;;1.20;1.20;;;;;;;16.14;100.00;100285.44;5052056;28;20198;-74
2023/05/08 03:22:47;;;;;;;0.95;0.95;;;;;;;16.37;100.00;100306.28;5053032;28;20681;-74
2023/05/08 03:25:16;;;;;;;1.52;1.52;;;;;;;16.33;100.00;100313.28;5053031;28;20227;-74
2023/05/08 03:27:45;;;;;;;1.15;1.15;;;;;;;15.80;100.00;100281.22;5052033;28;20200;-74
2023/05/08 03:30:13;;;;;;;1.00;1.00;;;;;;;15.84;100.00;100306.44;5052906;28;20222;-74
2023/05/08 03:32:41;;;;;;;1.17;1.17;;;;;;;15.74;100.00;100296.91;5052636;28;20228;-74
2023/05/08 03:35:09;;;;;;;1.02;1.02;;;;;;;15.80;100.00;100305.59;5052883;28;20218;-74
2023/05/08 03:37:37;;;;;;;1.40;1.40;;;;;;;15.61;100.00;100316.09;5034043;28;20199;-74
2023/05/08 03:40:07;;;;;;;1.40;1.30;;;;;;;15.74;100.00;100316.06;5051774;28;20225;-74
2023/05/08 03:42:35;;;;;;;1.58;1.48;;;;;;;15.21;100.00;100224.69;5052437;28;20290;-74
2023/05/08 03:45:03;;;;;;;1.30;1.27;;;;;;;15.83;100.00;100313.44;5033542;28;20211;-74
2023/05/08 03:47:32;;;;;;;1.20;1.20;;;;;;;15.90;100.00;100310.81;5052380;28;20199;-74
2023/05/08 03:50:00;;;;;;;1.30;1.30;;;;;;;15.98;100.00;100309.06;5052265;28;20614;-75
2023/05/08 03:52:27;;;;;;;1.40;1.30;;;;;;;15.81;100.00;100290.78;5052011;28;20223;-74
2023/05/08 03:54:53;;;;;;;1.80;1.70;;;;;;;15.97;100.00;100317.75;5052304;28;20283;-74
2023/05/08 03:57:28;;;;;;;1.30;1.30;;;;;;;16.14;100.00;100314.22;5051883;28;20196;-74
2023/05/08 04:00:08;;;;;;;1.10;1.10;;;;;;;16.11;100.00;100318.59;5052464;28;20290;-74
2023/05/08 04:02:40;;;;;;;1.10;1.10;;;;;;;16.14;100.00;100335.16;5017291;28;20203;-74
2023/05/08 04:05:17;;;;;;;1.30;1.30;;;;;;;15.99;100.00;100311.66;5053694;28;20207;-75
2023/05/08 04:07:50;;;;;;;1.23;1.23;;;;;;;15.95;100.00;100325.59;5052655;28;20223;-75
2023/05/08 04:10:25;;;;;;;1.30;1.30;;;;;;;15.73;100.00;100316.94;5053087;28;20255;-75
2023/05/08 04:13:03;;;;;;;2.67;2.13;;;;;;;15.83;100.00;100336.13;5052008;28;20281;-74
2023/05/08 04:15:32;;;;;;;1.33;1.33;;;;;;;15.78;100.00;100332.63;5049042;28;20205;-73
2023/05/08 04:18:03;;;;;;;1.45;1.38;;;;;;;15.95;100.00;100325.59;5051150;28;20583;-74
2023/05/08 04:20:31;;;;;;;1.25;1.25;;;;;;;16.00;100.00;100331.69;5050564;28;20261;-74
2023/05/08 04:22:59;;;;;;;1.40;1.40;;;;;;;15.92;100.00;100330.84;5051794;28;20199;-74
2023/05/08 04:25:26;;;;;;;1.30;1.30;;;;;;;15.79;100.00;100321.31;5051568;28;20207;-74
2023/05/08 04:27:56;;;;;;;1.20;1.20;;;;;;;16.04;100.00;100325.59;5051381;28;20651;-74
2023/05/08 04:30:23;;;;;;;1.25;1.25;;;;;;;15.88;100.00;100282.03;5051440;28;20199;-74
2023/05/08 04:32:51;;;;;;;1.10;1.10;;;;;;;16.09;100.00;100313.34;5032918;28;20231;-74
2023/05/08 04:35:18;;;;;;;1.10;1.10;;;;;;;16.12;100.00;100304.63;5051547;28;20195;-74
2023/05/08 04:37:46;;;;;;;1.23;1.23;;;;;;;16.24;100.00;100336.84;5051466;28;20629;-74
2023/05/08 04:40:13;;;;;;;1.30;1.30;;;;;;;16.03;100.00;100346.50;5050478;28;20208;-74
2023/05/08 04:42:41;;;;;;;1.23;1.23;;;;;;;16.02;100.00;100348.25;5051532;28;20211;-74
2023/05/08 04:45:10;;;;;;;1.00;1.00;;;;;;;15.92;100.00;100336.06;5032861;28;20257;-75
2023/05/08 04:47:37;;;;;;;1.20;1.20;;;;;;;15.76;100.00;100345.72;5015961;28;20597;-72
2023/05/08 04:50:05;;;;;;;1.20;1.20;;;;;;;15.55;100.00;100319.63;5051038;28;20282;-72
2023/05/08 04:52:31;;;;;;;1.13;1.13;;;;;;;15.75;100.00;100337.88;5051299;28;20258;-72
2023/05/08 04:54:58;;;;;;;1.00;1.00;;;;;;;15.61;100.00;100340.50;5050967;28;20207;-74
2023/05/08 04:57:25;;;;;;;1.08;1.08;;;;;;;15.60;100.00;100348.34;5051061;28;20207;-74
2023/05/08 04:59:52;;;;;;;1.00;1.00;;;;;;;15.70;100.00;100345.72;5032195;28;20273;-74
2023/05/08 05:02:20;;;;;;;1.23;1.23;;;;;;;15.90;100.00;100316.91;5047580;28;20207;-72
2023/05/08 05:04:47;;;;;;;1.10;1.10;;;;;;;15.98;100.00;100343.91;5050169;28;20265;-73
2023/05/08 05:07:14;;;;;;;1.20;1.20;;;;;;;15.91;100.00;100343.94;5050791;28;20720;-74
2023/05/08 05:09:40;;;;;;;1.20;1.20;;;;;;;15.95;100.00;100346.53;5015834;28;20199;-75
2023/05/08 05:12:07;;;;;;;1.27;1.27;;;;;;;15.73;100.00;100319.56;5028960;28;20227;-73
2023/05/08 05:14:34;;;;;;;1.23;1.23;;;;;;;15.59;100.00;100339.63;5062946;28;20206;-74
2023/05/08 05:17:01;;;;;;;1.20;1.20;;;;;;;15.95;100.00;100346.53;5065948;28;20204;-73
2023/05/08 05:19:29;;;;;;;1.23;1.23;;;;;;;15.83;100.00;100316.06;5055252;28;20211;-73
2023/05/08 05:21:56;;;;;;;1.10;1.10;;;;;;;15.84;100.00;100343.06;5060549;28;20199;-73
2023/05/08 05:24:22;;;;;;;1.20;1.20;;;;;;;15.71;100.00;100338.75;5063277;28;20211;-73
2023/05/08 05:26:49;;;;;;;1.10;1.10;;;;;;;15.52;100.00;100329.19;5060652;28;20206;-73
2023/05/08 05:29:16;;;;;;;1.17;1.17;;;;;;;15.80;100.00;100312.59;5070575;28;20235;-72
2023/05/08 05:31:43;;;;;;;1.25;1.25;;;;;;;16.16;100.00;100341.22;5067298;28;20698;-72
2023/05/08 05:34:09;;;;;;;1.08;1.08;;;;;;;15.99;100.00;100322.09;5060065;28;20609;-69
2023/05/08 05:36:38;;;;;;;1.30;1.30;;;;;;;16.32;100.00;100326.34;5060510;28;20688;-68
2023/05/08 05:39:04;;;;;;;1.05;1.05;;;;;;;16.44;100.00;100343.75;5036515;28;20208;-67
2023/05/08 05:41:31;;;;;;;1.23;1.23;;;;;;;16.55;98.95;100334.94;5050640;28;20226;-70
2023/05/08 05:43:58;;;;;;;1.05;1.05;;;;;;;16.43;100.00;100302.75;5050466;28;20215;-70
2023/05/08 05:46:31;;;;;;;1.30;1.30;;;;;;;17.02;96.60;100339.06;5048537;28;20214;-69
2023/05/08 05:48:57;;;;;;;1.30;1.30;;;;;;;17.07;95.21;100332.91;5064725;28;20195;-69
2023/05/08 05:51:26;;;;;;;1.20;1.20;;;;;;;17.28;94.82;100334.50;5026095;28;20225;-71
2023/05/08 05:53:54;;;;;;;1.17;1.17;;;;;;;17.73;92.60;100338.47;5070193;28;20203;-70
2023/05/08 05:56:22;;;;;;;1.27;1.27;;;;;;;17.35;89.71;100337.06;5070684;28;20244;-69
2023/05/08 05:58:48;;;;;;;1.27;1.27;;;;;;;17.42;90.13;100332.63;5070432;28;20662;-69
2023/05/08 06:01:15;;;;;;;1.00;1.00;;;;;;;17.72;91.93;100329.78;5070499;28;20206;-73
2023/05/08 06:03:42;;;;;;;1.20;1.20;;;;;;;17.43;92.12;100309.91;5061617;28;20252;-74
2023/05/08 06:06:09;;;;;;;1.27;1.27;;;;;;;17.55;92.87;100322.91;5069758;28;20210;-74
2023/05/08 06:08:36;;;;;;;1.10;1.10;;;;;;;17.22;96.28;100311.84;5059603;28;20286;-75
2023/05/08 06:11:05;;;;;;;1.10;1.10;;;;;;;17.14;98.51;100310.16;5070227;28;20199;-75
2023/05/08 06:13:31;;;;;;;1.00;1.00;;;;;;;17.50;96.70;100314.22;5059067;28;20218;-73
2023/05/08 06:15:58;;;;;;;1.10;1.10;;;;;;;17.76;93.38;100309.63;5069964;28;20245;-75
2023/05/08 06:18:25;;;;;;;1.00;1.00;;;;;;;18.12;90.50;100322.31;5016729;28;20215;-70
2023/05/08 06:20:57;;;;;;;1.15;1.15;;;;;;;18.69;90.06;100330.38;5031323;28;20313;-76
2023/05/08 06:23:24;;;;;;;1.20;1.20;;;;;;;18.91;84.33;100339.66;5059578;28;20538;-76
2023/05/08 06:25:51;;;;;;;1.10;1.10;;;;;;;18.69;82.72;100335.63;5054684;28;20219;-75
2023/05/08 06:28:21;;;;;;;1.45;1.45;;;;;;;18.28;84.77;100316.00;5022788;28;20306;-76
2023/05/08 06:30:48;;;;;;;1.30;1.30;;;;;;;18.05;88.65;100331.13;5046570;28;20203;-70
2023/05/08 06:33:14;;;;;;;1.23;1.23;;;;;;;18.74;95.61;100334.66;5030643;28;20224;-69
2023/05/08 06:35:41;;;;;;;1.20;1.20;;;;;;;19.24;82.68;100336.53;5054548;28;20204;-76
2023/05/08 06:38:08;;;;;;;1.20;1.20;;;;;;;19.25;80.53;100340.91;5052287;28;20207;-76
2023/05/08 06:40:35;;;;;;;1.10;1.10;;;;;;;18.97;77.93;100330.84;5051362;28;20208;-69
2023/05/08 06:43:01;;;;;;;1.10;1.10;;;;;;;19.04;94.13;100341.25;5049669;28;20223;-76
2023/05/08 06:45:30;;;;;;;0.90;0.90;;;;;;;18.96;83.15;100337.84;5049491;28;20203;-70
2023/05/08 06:47:56;;;;;;;1.10;1.10;;;;;;;18.68;78.61;100286.59;5049518;28;20265;-75
2023/05/08 06:50:23;;;;;;;1.20;1.20;;;;;;;18.59;78.58;100339.25;5052760;28;20200;-75
2023/05/08 06:52:50;;;;;;;1.10;1.10;;;;;;;18.21;80.78;100316.09;5053504;28;20258;-75
2023/05/08 06:55:17;;;;;;;1.20;1.20;;;;;;;18.00;83.82;100314.59;5017779;28;20226;-74
2023/05/08 06:57:44;;;;;;;1.15;1.15;;;;;;;17.98;86.63;100300.59;5056131;28;20207;-74
2023/05/08 07:00:12;;;;;;;1.00;1.00;;;;;;;17.88;82.24;100291.09;5053117;28;20253;-75
2023/05/08 07:02:40;;;;;;;1.10;1.10;;;;;;;18.48;84.24;100291.25;5052600;28;20216;-73
2023/05/08 07:05:08;;;;;;;1.10;1.10;;;;;;;18.78;77.91;100310.09;5053118;28;20230;-73
2023/05/08 07:07:35;;;;;;;1.40;1.40;;;;;;;19.53;74.36;100311.53;5053065;28;20204;-74
2023/05/08 07:10:01;;;;;;;1.00;1.00;;;;;;;19.80;69.62;100311.00;5053203;28;20258;-73
2023/05/08 07:12:28;;;;;;;0.98;0.98;;;;;;;19.51;66.26;100314.16;5052403;28;20760;-75
2023/05/08 07:14:55;;;;;;;1.10;1.10;;;;;;;19.67;66.26;100315.66;5054659;28;20203;-75
2023/05/08 07:17:22;;;;;;;1.17;1.17;;;;;;;19.76;64.88;100325.16;5069554;28;20207;-73
2023/05/08 07:19:51;;;;;;;1.13;1.13;;;;;;;19.73;66.11;100325.19;5066954;28;20667;-73
2023/05/08 07:22:18;;;;;;;1.23;1.23;;;;;;;19.38;66.15;100317.00;5066927;28;20212;-73
2023/05/08 07:24:45;;;;;;;1.10;1.10;;;;;;;19.54;70.40;100336.94;5051061;28;20270;-73
2023/05/08 07:27:13;;;;;;;1.38;1.35;;;;;;;19.62;75.34;100335.06;5044750;28;20203;-70
2023/05/08 07:29:41;;;;;;;1.20;1.20;;;;;;;19.52;72.64;100351.88;5013432;28;20251;-70
2023/05/08 07:32:08;;;;;;;1.42;1.35;;;;;;;19.58;70.33;100310.56;5052139;28;20199;-70
2023/05/08 07:34:35;;;;;;;1.40;1.30;;;;;;;19.67;72.97;100336.69;5052286;28;20614;-69
2023/05/08 07:37:03;;;;;;;1.02;1.02;;;;;;;19.60;76.59;100344.72;5052496;28;20219;-69
2023/05/08 07:39:30;;;;;;;1.20;1.20;;;;;;;19.63;75.85;100344.66;5052415;28;20682;-70
2023/05/08 07:41:57;;;;;;;1.10;1.10;;;;;;;19.51;72.33;100332.59;5033746;28;20677;-67
2023/05/08 07:44:24;;;;;;;1.17;1.17;;;;;;;19.61;70.78;100330.69;5052321;28;20585;-67
2023/05/08 07:46:51;;;;;;;1.70;1.60;;;;;;;19.92;71.28;100326.59;5031975;28;20586;-68
2023/05/08 07:49:18;;;;;;;1.10;1.10;;;;;;;19.95;69.92;100337.06;5052227;28;20238;-67
2023/05/08 07:51:44;;;;;;;1.27;1.25;;;;;;;20.04;69.19;100321.09;5061053;28;20195;-68
2023/05/08 07:54:13;;;;;;;1.40;1.30;;;;;;;20.35;67.78;100337.16;5071830;28;20230;-68
2023/05/08 07:56:39;;;;;;;1.10;1.10;;;;;;;20.51;65.19;100340.34;5063613;28;20286;-67
2023/05/08 07:59:06;;;;;;;1.10;1.10;;;;;;;20.79;63.23;100344.13;5071698;28;20228;-67
2023/05/08 08:01:33;;;;;;;1.20;1.20;;;;;;;21.18;61.14;100337.97;5071975;28;20203;-73
2023/05/08 08:04:00;;;;;;;1.10;1.10;;;;;;;21.54;59.80;100338.81;5070836;28;20289;-72
2023/05/08 08:06:27;;;;;;;1.25;1.25;;;;;;;21.51;58.56;100343.31;5071834;28;20210;-71
2023/05/08 08:08:54;;;;;;;1.48;1.40;;;;;;;21.47;59.05;100347.78;5031721;28;20203;-73
2023/05/08 08:11:22;;;;;;;1.20;1.20;;;;;;;21.89;57.34;100352.84;5051590;28;20269;-67
2023/05/08 08:13:49;;;;;;;1.17;1.17;;;;;;;21.72;55.87;100345.38;5066587;28;20215;-71
2023/05/08 08:16:16;;;;;;;1.00;1.00;;;;;;;21.93;57.97;100349.25;5057711;28;20200;-73
2023/05/08 08:18:42;;;;;;;1.17;1.17;;;;;;;21.62;59.32;100347.38;5051273;28;20211;-73
2023/05/08 08:21:09;;;;;;;1.00;1.00;;;;;;;21.73;58.96;100347.09;5053412;28;20199;-73
2023/05/08 08:23:36;;;;;;;3.53;1.63;;;;;;;21.48;60.51;100343.34;5072163;28;20194;-73
2023/05/08 08:26:03;;;;;;;1.67;1.58;;;;;;;21.55;61.38;100347.56;5054893;28;20269;-73
2023/05/08 08:28:31;;;;;;;1.20;1.20;;;;;;;21.68;59.70;100312.94;5063093;28;20227;-73
2023/05/08 08:30:58;;;;;;;1.48;1.40;;;;;;;22.18;57.93;100361.75;5051509;28;20287;-73
2023/05/08 08:33:27;;;;;;;0.98;0.98;;;;;;;22.27;57.26;100365.03;5051334;28;20230;-74
2023/05/08 08:35:54;;;;;;;0.90;0.90;;;;;;;22.47;56.63;100368.84;5051155;28;20204;-71
2023/05/08 08:38:20;;;;;;;1.23;1.23;;;;;;;22.28;56.29;100350.91;5050894;28;20348;-72
2023/05/08 08:40:47;;;;;;;1.05;1.05;;;;;;;22.68;54.63;100340.94;5051293;28;20203;-72
2023/05/08 08:43:14;;;;;;;1.05;1.05;;;;;;;23.45;52.98;100377.31;5051131;28;20642;-72
2023/05/08 08:45:42;;;;;;;1.08;1.08;;;;;;;24.21;50.41;100375.56;5051449;28;20206;-72
2023/05/08 08:48:11;;;;;;;1.05;1.05;;;;;;;23.77;49.28;100374.44;5050659;28;20215;-71
2023/05/08 08:50:42;;;;;;;1.30;1.30;;;;;;;23.71;52.50;100358.78;5050980;28;20249;-67
2023/05/08 08:53:11;;;;;;;1.10;1.10;;;;;;;24.19;49.74;100367.66;5050508;28;20320;-66
2023/05/08 08:55:44;;;;;;;1.10;1.10;;;;;;;24.30;48.23;100375.22;5051005;28;20227;-72
2023/05/08 08:58:18;;;;;;;1.00;1.00;;;;;;;24.43;49.03;100378.31;5050772;28;20207;-72
2023/05/08 09:00:46;;;;;;;1.00;1.00;;;;;;;24.35;46.49;100383.91;5051109;28;20290;-73
2023/05/08 09:03:14;;;;;;;1.00;1.00;;;;;;;24.32;46.43;100377.84;5051201;28;20590;-73
2023/05/08 09:05:41;;;;;;;0.93;0.93;;;;;;;23.95;47.53;100373.81;5051295;28;20211;-73
2023/05/08 09:08:09;;;;;;;1.42;1.42;;;;;;;24.02;47.89;100348.84;5032829;28;20321;-73
2023/05/08 09:10:36;;;;;;;0.95;0.95;;;;;;;23.91;48.23;100368.66;5051190;28;20662;-73
2023/05/08 09:13:03;;;;;;;1.10;1.10;;;;;;;23.58;49.59;100368.06;5050537;28;20250;-71
2023/05/08 09:15:31;;;;;;;1.10;1.10;;;;;;;23.85;49.13;100348.56;5050885;28;20222;-69
2023/05/08 09:18:01;;;;;;;1.17;1.17;;;;;;;24.07;48.21;100372.53;5050854;28;20246;-70
2023/05/08 09:20:28;;;;;;;1.20;1.20;;;;;;;23.56;50.19;100365.47;5050915;28;20269;-69
2023/05/08 09:22:56;;;;;;;1.10;1.10;;;;;;;23.99;49.19;100374.56;5068218;28;20613;-71
2023/05/08 09:25:23;;;;;;;1.17;1.17;;;;;;;23.91;48.53;100371.31;5070989;28;20203;-75
2023/05/08 09:27:50;;;;;;;1.20;1.20;;;;;;;23.01;50.99;100376.06;5066955;28;20688;-72
2023/05/08 09:30:18;;;;;;;1.10;1.10;;;;;;;23.26;51.98;100368.22;5044113;28;20211;-73
2023/05/08 09:32:45;;;;;;;1.15;1.15;;;;;;;22.71;52.81;100340.84;5048511;28;20204;-71
2023/05/08 09:35:13;;;;;;;1.00;1.00;;;;;;;23.19;52.24;100378.13;5032290;28;20227;-73
2023/05/08 09:37:41;;;;;;;1.10;1.10;;;;;;;22.90;51.02;100379.03;5050486;28;20206;-73
2023/05/08 09:40:15;;;;;;;1.30;1.30;;;;;;;22.89;50.42;100379.97;5049759;28;20230;-74
2023/05/08 09:42:42;;;;;;;1.00;1.00;;;;;;;23.13;51.29;100379.19;5050512;28;20243;-74
2023/05/08 09:45:10;;;;;;;1.17;1.17;;;;;;;22.80;52.56;100363.47;5047675;28;20203;-73
2023/05/08 09:47:38;;;;;;;1.10;1.10;;;;;;;23.04;52.51;100387.44;5031241;28;20208;-73
2023/05/08 09:50:07;;;;;;;1.10;1.10;;;;;;;23.09;53.15;100380.19;5030824;28;20223;-73
2023/05/08 09:52:36;;;;;;;1.02;1.02;;;;;;;22.56;54.53;100388.84;5030977;28;20250;-74
2023/05/08 09:55:05;;;;;;;1.10;1.10;;;;;;;22.49;55.76;100392.56;5030785;28;20205;-74
2023/05/08 09:57:33;;;;;;;1.20;1.20;;;;;;;22.24;56.20;100384.47;5030579;28;20203;-73
2023/05/08 10:00:06;;;;;;;1.25;1.25;;;;;;;21.99;57.15;100386.06;5030658;28;20207;-74
2023/05/08 10:02:33;;;;;;;1.20;1.20;;;;;;;21.76;58.29;100389.25;4996195;28;20514;-73
2023/05/08 10:05:00;;;;;;;1.27;1.27;;;;;;;21.88;60.11;100388.94;5030722;28;20205;-74
2023/05/08 10:07:28;;;;;;;1.02;1.02;;;;;;;21.33;63.08;100388.59;5030727;28;20195;-74
2023/05/08 10:10:01;;;;;;;1.10;1.10;;;;;;;21.25;65.43;100391.41;5030536;28;20279;-74
2023/05/08 10:12:29;;;;;;;1.30;1.30;;;;;;;20.95;67.16;100385.03;5030382;28;20208;-74
2023/05/08 10:14:56;;;;;;;1.05;1.05;;;;;;;20.95;67.82;100381.53;5030669;28;20227;-74
2023/05/08 10:17:27;;;;;;;1.20;1.20;;;;;;;21.46;66.35;100390.03;5030423;28;20204;-74
2023/05/08 10:20:00;;;;;;;1.10;1.10;;;;;;;21.21;65.67;100380.06;5030682;28;20227;-74
2023/05/08 10:22:28;;;;;;;1.20;1.20;;;;;;;21.28;66.73;100380.78;5030598;28;20243;-73
2023/05/08 10:24:58;;;;;;;1.27;1.27;;;;;;;20.96;67.92;100368.31;5034250;28;20204;-73
2023/05/08 10:27:35;;;;;;;1.02;1.02;;;;;;;20.79;68.53;100386.28;5034231;28;20235;-73
2023/05/08 10:30:04;;;;;;;1.10;1.10;;;;;;;20.59;68.36;100389.34;5034359;28;20211;-74
2023/05/08 10:32:39;;;;;;;1.20;1.20;;;;;;;20.60;69.27;100364.72;5034123;28;20208;-73
2023/05/08 10:35:09;;;;;;;1.95;1.85;;;;;;;20.83;69.48;100402.91;5034209;28;20227;-74
2023/05/08 10:37:37;;;;;;;1.40;1.40;;;;;;;20.57;68.02;100403.44;5034082;28;20207;-74
2023/05/08 10:40:05;;;;;;;1.10;1.10;;;;;;;20.23;68.12;100335.59;5034040;28;20200;-74
2023/05/08 10:42:34;;;;;;;1.20;1.20;;;;;;;20.50;71.40;100404.47;5015804;28;20295;-74
2023/05/08 10:45:02;;;;;;;0.98;0.98;;;;;;;20.18;73.13;100416.47;5034326;28;20267;-76
2023/05/08 10:47:38;;;;;;;1.20;1.20;;;;;;;19.61;76.71;100409.59;5034847;28;20564;-76
2023/05/08 10:50:16;;;;;;;1.00;1.00;;;;;;;19.66;80.75;100419.16;5034383;28;20203;-77
2023/05/08 10:52:51;;;;;;;1.13;1.13;;;;;;;20.17;76.83;100429.66;5036171;28;20203;-69
2023/05/08 10:55:25;;;;;;;1.00;1.00;;;;;;;20.40;74.79;100416.09;5047430;28;20230;-69
2023/05/08 10:58:13;;;;;;;1.10;1.10;;;;;;;19.53;76.28;100416.75;5053312;28;20195;-68
2023/05/08 11:01:14;;;;;;;2.97;1.90;;;;;;;19.11;82.18;100434.00;5053404;28;20206;-68
2023/05/08 11:03:42;;;;;;;3.20;1.50;;;;;;;19.58;78.13;100430.72;4991942;28;20233;-66
2023/05/08 11:06:09;;;;;;;3.38;1.50;;;;;;;19.00;80.06;100433.28;4991975;28;20614;-68
2023/05/08 11:08:48;;;;;;;3.75;1.67;;;;;;;19.49;79.42;100436.97;4991779;28;20194;-68
2023/05/08 11:11:25;;;;;;;4.15;1.80;;;;;;;19.60;77.02;100440.31;4996058;28;20244;-68
2023/05/08 11:13:58;;;;;;;3.92;1.77;;;;;;;19.36;77.98;100445.91;4993509;28;20300;-68
2023/05/08 11:17:07;;;;;;;2.60;1.30;;;;;;;19.49;78.54;100441.34;4984244;28;20197;-68
2023/05/08 11:19:34;;;;;;;5.15;1.88;;;;;;;19.47;78.39;100433.50;4974785;28;20244;-68
2023/05/08 11:22:25;;;;;;;3.97;1.70;;;;;;;19.22;79.40;100451.38;4989958;28;20205;-70
2023/05/08 11:24:54;;;;;;;2.78;1.50;;;;;;;19.15;80.08;100457.63;4990797;28;20217;-72
2023/05/08 11:28:01;;;;;;;5.18;1.75;;;;;;;19.07;79.75;100455.97;4990653;28;20198;-72
2023/05/08 11:30:40;;;;;;;4.63;1.75;;;;;;;18.88;81.88;100446.56;4977498;28;20202;-71
2023/05/08 11:33:30;;;;;;;3.90;1.60;;;;;;;18.71;85.10;100449.44;4990758;28;20355;-70